Time;durP1;ratioP1;P1;durP2;ratioP2;P2;SDS_P1;SDS_P2;PMS_P1;PMS_P2;Temp;Humidity;BMP_temperature;BMP_pressure;BME280_temperature;BME280_humidity;BME280_pressure;Samples;Min_cycle;Max_cycle;Signal;HPM_P1;HPM_P2
2022/12/03 00:00:58;;;;;;;31.38;18.30;;;3.20;99.90;;;;;;5092358;28;20028;-68
2022/12/03 00:03:23;;;;;;;30.02;16.05;;;3.20;99.90;;;;;;5074461;28;20020;-66
2022/12/03 00:05:49;;;;;;;29.38;15.13;;;3.20;99.90;;;;;;5088307;28;20024;-66
2022/12/03 00:08:14;;;;;;;31.65;16.80;;;3.10;99.90;;;;;;5088354;28;20036;-66
2022/12/03 00:10:40;;;;;;;29.02;16.55;;;3.20;99.90;;;;;;5088225;28;20564;-66
2022/12/03 00:13:05;;;;;;;29.80;17.75;;;3.20;99.90;;;;;;5093860;28;20020;-66
2022/12/03 00:15:31;;;;;;;34.20;18.25;;;3.20;99.90;;;;;;5090826;28;20028;-65
2022/12/03 00:17:56;;;;;;;31.67;17.00;;;3.20;99.90;;;;;;5070788;27;20040;-66
2022/12/03 00:20:23;;;;;;;31.02;16.88;;;3.20;99.90;;;;;;5091974;28;20047;-66
2022/12/03 00:22:49;;;;;;;33.25;18.10;;;3.20;99.90;;;;;;5092235;28;20103;-66
2022/12/03 00:25:15;;;;;;;30.23;17.58;;;3.20;99.90;;;;;;5093497;28;20098;-66
2022/12/03 00:27:40;;;;;;;34.65;18.20;;;3.20;99.90;;;;;;5093873;28;20051;-65
2022/12/03 00:30:07;;;;;;;32.92;17.75;;;3.20;99.90;;;;;;5094528;28;20031;-66
2022/12/03 00:32:33;;;;;;;35.10;18.77;;;3.10;99.90;;;;;;5092619;28;20051;-65
2022/12/03 00:34:58;;;;;;;31.85;18.38;;;3.20;99.90;;;;;;5096091;28;20035;-65
2022/12/03 00:37:24;;;;;;;34.03;17.50;;;3.10;99.90;;;;;;5091436;28;20028;-65
2022/12/03 00:39:49;;;;;;;34.30;18.38;;;3.10;99.90;;;;;;5094369;28;20063;-66
2022/12/03 00:42:15;;;;;;;35.78;18.83;;;3.10;99.90;;;;;;5094559;28;20061;-65
2022/12/03 00:44:40;;;;;;;35.83;17.95;;;3.10;99.90;;;;;;5093584;28;20020;-65
2022/12/03 00:47:06;;;;;;;31.48;17.05;;;3.10;99.90;;;;;;5091624;28;20066;-65
2022/12/03 00:49:31;;;;;;;34.08;18.50;;;3.10;99.90;;;;;;5083686;28;20464;-66
2022/12/03 00:51:57;;;;;;;36.17;18.13;;;3.20;99.90;;;;;;5094351;28;20024;-65
2022/12/03 00:54:22;;;;;;;33.38;18.08;;;3.20;99.90;;;;;;5096841;28;20127;-65
2022/12/03 00:56:48;;;;;;;31.70;17.70;;;3.20;99.90;;;;;;5097124;28;20443;-65
2022/12/03 00:59:13;;;;;;;35.17;19.10;;;3.20;99.90;;;;;;5095463;28;20469;-66
2022/12/03 01:01:39;;;;;;;34.75;19.33;;;3.20;99.90;;;;;;5092212;28;20099;-64
2022/12/03 01:04:04;;;;;;;31.73;17.35;;;3.20;99.90;;;;;;5092704;28;20027;-65
2022/12/03 01:06:30;;;;;;;32.70;18.85;;;3.20;99.90;;;;;;5075771;27;20477;-65
2022/12/03 01:08:56;;;;;;;36.90;19.48;;;3.20;99.90;;;;;;5093939;28;20086;-65
2022/12/03 01:11:36;;;;;;;34.00;18.27;;;3.20;99.90;;;;;;5094618;27;20028;-65
2022/12/03 01:14:03;;;;;;;31.40;16.95;;;3.20;99.90;;;;;;5093958;28;20028;-65
2022/12/03 01:16:28;;;;;;;35.20;19.48;;;3.20;99.90;;;;;;5090817;28;20030;-65
2022/12/03 01:18:54;;;;;;;32.22;18.67;;;3.20;99.90;;;;;;5091931;28;20031;-65
2022/12/03 01:21:19;;;;;;;35.15;19.00;;;3.20;99.90;;;;;;5093047;28;20501;-66
2022/12/03 01:23:45;;;;;;;33.22;17.33;;;3.20;99.90;;;;;;5096741;28;20102;-65
2022/12/03 01:26:10;;;;;;;31.73;18.23;;;3.20;99.90;;;;;;5093589;28;20024;-65
2022/12/03 01:28:36;;;;;;;35.97;18.95;;;3.30;99.90;;;;;;5095834;28;20157;-66
2022/12/03 01:33:46;;;;;;;33.15;18.38;;;3.20;99.90;;;;;;5092981;28;20161;-65
2022/12/03 01:36:11;;;;;;;31.42;18.98;;;3.20;99.90;;;;;;5093421;28;20047;-65
2022/12/03 01:38:37;;;;;;;32.55;18.45;;;3.20;99.90;;;;;;5098557;28;20034;-65
2022/12/03 01:41:03;;;;;;;38.05;19.73;;;3.20;99.90;;;;;;5096141;28;20036;-65
2022/12/03 01:43:28;;;;;;;33.70;19.33;;;3.20;99.90;;;;;;5095692;28;20059;-65
2022/12/03 01:45:54;;;;;;;34.95;19.08;;;3.20;99.90;;;;;;5092906;28;20485;-65
2022/12/03 01:48:19;;;;;;;37.08;20.08;;;3.20;99.90;;;;;;5093090;28;20036;-65
2022/12/03 01:50:45;;;;;;;33.17;18.30;;;3.20;99.90;;;;;;5077170;28;20027;-66
2022/12/03 01:53:14;;;;;;;35.33;19.45;;;3.20;99.90;;;;;;5093054;28;20023;-65
2022/12/03 01:55:42;;;;;;;35.83;20.38;;;3.20;99.90;;;;;;5089958;28;20101;-65
2022/12/03 01:58:12;;;;;;;34.70;18.52;;;3.30;99.90;;;;;;5095222;28;20020;-66
2022/12/03 02:00:37;;;;;;;35.78;20.27;;;3.20;99.90;;;;;;5092098;28;20073;-65
2022/12/03 02:03:10;;;;;;;34.40;19.58;;;3.20;99.90;;;;;;5092502;28;20023;-65
2022/12/03 02:05:37;;;;;;;34.53;18.70;;;3.30;99.90;;;;;;5089668;28;20020;-65
2022/12/03 02:08:29;;;;;;;35.03;19.80;;;3.20;99.90;;;;;;5076694;28;20036;-66
2022/12/03 02:10:57;;;;;;;33.50;19.23;;;3.30;99.90;;;;;;5089742;28;20132;-65
2022/12/03 02:13:23;;;;;;;38.17;21.45;;;3.30;99.90;;;;;;5096504;27;20557;-66
2022/12/03 02:15:48;;;;;;;34.47;20.27;;;3.20;99.90;;;;;;5089755;28;20051;-66
2022/12/03 02:18:14;;;;;;;32.25;17.60;;;3.20;99.90;;;;;;5094197;28;20032;-65
2022/12/03 02:20:55;;;;;;;35.20;19.50;;;3.20;99.90;;;;;;5092391;28;20031;-65
2022/12/03 02:23:27;;;;;;;32.60;19.02;;;3.30;99.90;;;;;;5089963;28;20030;-65
2022/12/03 02:25:53;;;;;;;32.75;17.95;;;3.30;99.90;;;;;;5091984;28;20032;-66
2022/12/03 02:28:18;;;;;;;35.10;18.98;;;3.30;99.90;;;;;;5093816;28;20031;-65
2022/12/03 02:30:44;;;;;;;33.03;18.73;;;3.30;99.90;;;;;;5092191;28;20039;-65
2022/12/03 02:33:09;;;;;;;37.45;20.77;;;3.30;99.90;;;;;;5076654;28;20055;-64
2022/12/03 02:35:36;;;;;;;35.22;19.60;;;3.30;99.90;;;;;;5090430;28;20020;-64
2022/12/03 02:38:15;;;;;;;36.22;19.75;;;3.30;99.90;;;;;;5092268;28;20035;-65
2022/12/03 02:40:42;;;;;;;32.55;18.90;;;3.30;99.90;;;;;;5094699;28;20473;-65
2022/12/03 02:43:09;;;;;;;37.00;20.30;;;3.30;99.90;;;;;;5094908;28;20028;-64
2022/12/03 02:45:53;;;;;;;36.97;21.08;;;3.30;99.90;;;;;;5068379;28;20114;-64
2022/12/03 02:48:24;;;;;;;41.13;21.45;;;3.30;99.90;;;;;;5092152;28;20411;-64
2022/12/03 02:50:53;;;;;;;39.05;20.95;;;3.30;99.90;;;;;;5094049;28;20027;-65
2022/12/03 02:53:25;;;;;;;36.08;20.25;;;3.30;99.90;;;;;;5095506;28;20020;-65
2022/12/03 02:55:52;;;;;;;33.05;18.75;;;3.30;99.90;;;;;;5091919;28;20508;-65
2022/12/03 02:58:18;;;;;;;37.15;21.42;;;3.30;99.90;;;;;;5088821;28;20024;-65
2022/12/03 03:00:45;;;;;;;37.90;20.52;;;3.30;99.90;;;;;;5088950;28;20069;-65
2022/12/03 03:03:11;;;;;;;35.15;20.75;;;3.30;99.90;;;;;;5092097;28;20035;-65
2022/12/03 03:05:38;;;;;;;35.25;19.67;;;3.30;99.90;;;;;;5097772;27;20027;-65
2022/12/03 03:08:06;;;;;;;35.70;19.27;;;3.30;99.90;;;;;;5121426;27;20027;-64
2022/12/03 03:10:34;;;;;;;34.45;19.52;;;3.30;99.90;;;;;;5078484;28;20058;-65
2022/12/03 03:13:02;;;;;;;40.90;23.33;;;3.40;99.90;;;;;;5089101;28;20486;-65
2022/12/03 03:15:28;;;;;;;37.88;21.10;;;3.30;99.90;;;;;;5096847;28;20028;-65
2022/12/03 03:17:54;;;;;;;33.90;20.30;;;3.30;99.90;;;;;;5089481;28;20047;-65
2022/12/03 03:20:20;;;;;;;34.40;20.73;;;3.30;99.90;;;;;;5088580;28;20076;-66
2022/12/03 03:22:45;;;;;;;35.83;20.67;;;3.30;99.90;;;;;;5090522;28;20111;-65
2022/12/03 03:25:14;;;;;;;38.60;20.67;;;3.30;99.90;;;;;;5093841;28;20540;-65
2022/12/03 03:27:40;;;;;;;38.55;21.15;;;3.30;99.90;;;;;;5092723;28;20047;-66
2022/12/03 03:30:07;;;;;;;36.42;20.67;;;3.30;99.90;;;;;;5102179;28;20110;-65
2022/12/03 03:32:34;;;;;;;36.33;21.15;;;3.30;99.90;;;;;;5109042;28;20048;-65
2022/12/03 03:35:00;;;;;;;35.80;20.85;;;3.30;99.90;;;;;;5088478;28;20378;-65
2022/12/03 03:37:26;;;;;;;41.42;22.88;;;3.30;99.90;;;;;;5090218;28;20036;-66
2022/12/03 03:39:52;;;;;;;39.83;21.70;;;3.30;99.90;;;;;;5093026;28;20039;-65
2022/12/03 03:42:18;;;;;;;37.92;20.67;;;3.30;99.90;;;;;;5091132;28;20489;-65
2022/12/03 03:44:44;;;;;;;38.67;20.65;;;3.30;99.90;;;;;;5089406;28;20031;-65
2022/12/03 03:47:10;;;;;;;36.70;20.95;;;3.30;99.90;;;;;;5098920;28;20468;-65
2022/12/03 03:49:36;;;;;;;33.47;19.92;;;3.30;99.90;;;;;;5078291;28;20028;-65
2022/12/03 03:52:02;;;;;;;37.42;21.10;;;3.30;99.90;;;;;;5094719;28;20034;-65
2022/12/03 03:54:28;;;;;;;35.90;20.90;;;3.30;99.90;;;;;;5097861;28;20105;-65
2022/12/03 03:56:54;;;;;;;35.28;19.73;;;3.30;99.90;;;;;;5092583;28;20063;-65
2022/12/03 03:59:19;;;;;;;34.08;20.13;;;3.30;99.90;;;;;;5095129;28;20038;-65
2022/12/03 04:01:45;;;;;;;30.05;18.27;;;3.30;99.90;;;;;;5095069;28;20035;-65
2022/12/03 04:04:33;;;;;;;35.15;18.40;;;3.30;99.90;;;;;;5101059;27;20039;-64
2022/12/03 04:06:59;;;;;;;33.50;18.85;;;3.30;99.90;;;;;;5076786;28;20134;-65
2022/12/03 04:09:24;;;;;;;32.90;19.67;;;3.20;99.90;;;;;;5094818;28;20118;-65
2022/12/03 04:14:34;;;;;;;35.17;18.60;;;3.20;99.90;;;;;;5092578;28;20031;-65
2022/12/03 04:17:00;;;;;;;31.00;18.33;;;3.20;99.90;;;;;;5075679;28;20028;-65
2022/12/03 04:19:25;;;;;;;33.40;19.20;;;3.20;99.90;;;;;;5096219;28;20119;-65
2022/12/03 04:24:35;;;;;;;32.42;17.77;;;3.30;99.90;;;;;;5096277;28;20028;-65
2022/12/03 04:29:44;;;;;;;37.25;20.02;;;3.20;99.90;;;;;;5094944;27;20121;-65
2022/12/03 04:37:38;;;;;;;31.67;17.65;;;3.20;99.90;;;;;;5096760;27;20026;-65
2022/12/03 04:40:59;;;;;;;28.50;16.77;;;3.20;99.90;;;;;;5077238;28;20028;-64
2022/12/03 04:42:49;;;;;;;33.45;18.63;;;3.20;99.90;;;;;;5092940;28;20028;-65
2022/12/03 04:45:15;;;;;;;30.58;16.58;;;3.20;99.90;;;;;;5096581;28;20031;-65
2022/12/03 04:47:40;;;;;;;31.70;18.08;;;3.20;99.90;;;;;;5075997;28;20569;-65
2022/12/03 04:50:06;;;;;;;30.58;17.42;;;3.20;99.90;;;;;;5091534;28;20024;-65
2022/12/03 04:52:32;;;;;;;36.45;19.20;;;3.30;99.90;;;;;;5094231;28;20024;-65
2022/12/03 04:54:57;;;;;;;35.38;20.45;;;3.20;99.90;;;;;;5073230;28;20521;-66
2022/12/03 04:57:23;;;;;;;36.90;19.13;;;3.20;99.90;;;;;;5091139;28;20035;-65
2022/12/03 04:59:48;;;;;;;35.70;19.02;;;3.20;99.90;;;;;;5096998;28;20120;-65
2022/12/03 05:02:14;;;;;;;37.40;20.50;;;3.20;99.90;;;;;;5093935;28;20187;-65
2022/12/03 05:04:39;;;;;;;30.65;18.13;;;3.20;99.90;;;;;;5096154;28;20020;-65
2022/12/03 05:07:05;;;;;;;36.72;19.60;;;3.10;99.90;;;;;;5096487;28;20481;-65
2022/12/03 05:09:30;;;;;;;32.75;18.40;;;3.20;99.90;;;;;;5093873;28;20498;-66
2022/12/03 05:11:56;;;;;;;33.60;18.83;;;3.20;99.90;;;;;;5072658;28;20031;-65
2022/12/03 05:14:21;;;;;;;35.95;20.15;;;3.20;99.90;;;;;;5094242;28;20023;-65
2022/12/03 05:16:47;;;;;;;38.83;20.55;;;3.10;99.90;;;;;;5093491;28;20026;-66
2022/12/03 05:19:12;;;;;;;32.03;17.33;;;3.20;99.90;;;;;;5094587;28;20028;-65
2022/12/03 05:21:38;;;;;;;33.70;18.55;;;3.10;99.90;;;;;;5079992;28;20087;-65
2022/12/03 05:24:04;;;;;;;38.20;21.17;;;3.10;99.90;;;;;;5093516;28;20032;-65
2022/12/03 05:26:29;;;;;;;36.90;19.27;;;3.10;99.90;;;;;;5090751;28;20016;-65
2022/12/03 05:28:55;;;;;;;37.65;20.77;;;3.10;99.90;;;;;;5094703;28;20393;-65
2022/12/03 05:31:20;;;;;;;38.97;20.48;;;3.10;99.90;;;;;;5094684;28;20085;-65
2022/12/03 05:33:46;;;;;;;38.13;22.20;;;3.10;99.90;;;;;;5092981;28;20052;-65
2022/12/03 05:36:11;;;;;;;34.67;18.38;;;3.10;99.90;;;;;;5091547;27;20553;-66
2022/12/03 05:38:37;;;;;;;37.03;19.35;;;3.10;99.90;;;;;;5095985;28;20050;-66
2022/12/03 05:42:52;;;;;;;37.15;20.58;;;3.10;99.90;;;;;;5093126;28;20024;-65
2022/12/03 05:43:48;;;;;;;33.20;18.05;;;3.00;99.90;;;;;;5096877;27;20024;-65
2022/12/03 05:46:14;;;;;;;34.42;19.85;;;3.10;99.90;;;;;;5097476;28;20046;-65
2022/12/03 05:48:39;;;;;;;36.22;19.05;;;3.10;99.90;;;;;;5094752;28;20104;-65
2022/12/03 05:51:05;;;;;;;37.33;19.67;;;3.10;99.90;;;;;;5074786;28;20028;-65
2022/12/03 05:53:30;;;;;;;33.28;18.48;;;3.10;99.90;;;;;;5077368;28;20390;-65
2022/12/03 05:55:56;;;;;;;32.75;18.30;;;3.10;99.90;;;;;;5091836;28;20085;-65
2022/12/03 05:58:21;;;;;;;28.52;17.88;;;3.10;99.90;;;;;;5093727;28;20024;-65
2022/12/03 06:00:47;;;;;;;34.22;19.52;;;3.10;99.90;;;;;;5094015;28;20449;-65
2022/12/03 06:03:12;;;;;;;33.42;18.45;;;3.10;99.90;;;;;;5097662;28;20020;-65
2022/12/03 06:05:38;;;;;;;36.88;19.10;;;3.10;99.90;;;;;;5092947;28;20034;-65
2022/12/03 06:08:03;;;;;;;33.85;18.25;;;3.10;99.90;;;;;;5092531;28;20028;-66
2022/12/03 06:10:29;;;;;;;37.22;19.40;;;3.10;99.90;;;;;;5095497;28;20134;-66
2022/12/03 06:12:55;;;;;;;37.63;21.42;;;3.10;99.90;;;;;;5092097;28;20028;-65
2022/12/03 06:15:20;;;;;;;35.95;20.33;;;3.10;99.90;;;;;;5089629;28;20031;-65
2022/12/03 06:17:46;;;;;;;38.22;21.27;;;3.10;99.90;;;;;;5091095;28;20486;-65
2022/12/03 06:20:14;;;;;;;39.55;21.17;;;3.10;99.90;;;;;;5074003;28;20388;-65
2022/12/03 06:22:40;;;;;;;36.35;20.17;;;3.10;99.90;;;;;;5094049;28;20020;-65
2022/12/03 06:25:06;;;;;;;36.40;20.83;;;3.00;99.90;;;;;;5089394;28;20018;-65
2022/12/03 06:27:32;;;;;;;35.88;20.20;;;3.00;99.90;;;;;;5092284;28;20027;-65
2022/12/03 06:29:57;;;;;;;38.03;20.77;;;3.00;99.90;;;;;;5089595;28;20359;-65
2022/12/03 06:32:23;;;;;;;42.25;21.45;;;3.00;99.90;;;;;;5092054;28;20516;-64
2022/12/03 06:34:48;;;;;;;40.58;21.80;;;3.00;99.90;;;;;;5093042;28;20028;-66
2022/12/03 06:37:14;;;;;;;33.22;18.73;;;3.00;99.90;;;;;;5093298;28;20041;-65
2022/12/03 06:39:39;;;;;;;36.72;19.70;;;3.00;99.90;;;;;;5094601;28;20015;-65
2022/12/03 06:42:05;;;;;;;33.65;18.17;;;3.00;99.90;;;;;;5116304;27;20428;-65
2022/12/03 06:44:30;;;;;;;34.78;20.48;;;3.00;99.90;;;;;;5089620;28;20463;-64
2022/12/03 06:46:56;;;;;;;34.67;19.23;;;3.00;99.90;;;;;;5073947;28;20020;-64
2022/12/03 06:49:21;;;;;;;38.60;19.75;;;3.00;99.90;;;;;;5089153;28;20104;-65
2022/12/03 06:51:47;;;;;;;39.33;18.75;;;3.00;99.90;;;;;;5091678;28;20024;-64
2022/12/03 06:54:12;;;;;;;37.45;20.27;;;3.00;99.90;;;;;;5088668;28;20020;-65
2022/12/03 06:56:38;;;;;;;37.92;19.75;;;3.00;99.90;;;;;;5092121;28;20371;-65
2022/12/03 06:59:03;;;;;;;34.85;18.30;;;3.00;99.90;;;;;;5096597;27;20508;-65
2022/12/03 07:01:29;;;;;;;35.63;19.05;;;3.00;99.90;;;;;;5094067;28;20042;-64
2022/12/03 07:03:54;;;;;;;36.30;19.25;;;3.00;99.90;;;;;;5098655;28;20032;-65
2022/12/03 07:06:20;;;;;;;37.88;19.00;;;3.00;99.90;;;;;;5091971;28;20028;-64
2022/12/03 07:08:45;;;;;;;34.00;18.25;;;3.00;99.90;;;;;;5091352;28;20046;-65
2022/12/03 07:13:56;;;;;;;41.90;18.83;;;3.00;99.90;;;;;;5095006;28;20047;-65
2022/12/03 07:16:22;;;;;;;38.38;18.90;;;2.90;99.90;;;;;;5094281;28;20024;-65
2022/12/03 07:18:48;;;;;;;39.65;19.65;;;2.90;99.90;;;;;;5094610;28;20488;-65
2022/12/03 07:21:13;;;;;;;32.47;17.33;;;2.90;99.90;;;;;;5105513;28;20092;-64
2022/12/03 07:23:39;;;;;;;36.28;18.83;;;3.00;99.90;;;;;;5095085;28;20019;-65
2022/12/03 07:26:04;;;;;;;33.20;17.63;;;3.00;99.90;;;;;;5104813;28;20051;-65
2022/12/03 07:28:30;;;;;;;36.97;18.27;;;3.00;99.90;;;;;;5084847;28;20019;-64
2022/12/03 07:30:55;;;;;;;40.17;18.77;;;3.00;99.90;;;;;;5088938;28;20551;-64
2022/12/03 07:33:21;;;;;;;37.47;19.27;;;3.00;99.90;;;;;;5112025;28;20071;-64
2022/12/03 07:35:46;;;;;;;37.38;20.25;;;3.00;99.90;;;;;;5097940;28;20028;-65
2022/12/03 07:38:12;;;;;;;42.40;20.23;;;2.90;99.90;;;;;;5113139;28;20476;-65
2022/12/03 07:40:37;;;;;;;40.70;19.95;;;2.90;99.90;;;;;;5098675;28;20024;-64
2022/12/03 07:43:03;;;;;;;42.70;20.67;;;3.00;99.90;;;;;;5104057;28;20047;-64
2022/12/03 07:45:28;;;;;;;43.92;21.20;;;2.90;99.90;;;;;;5109093;28;20488;-64
2022/12/03 07:47:54;;;;;;;40.67;20.35;;;3.00;99.90;;;;;;5106060;28;20038;-64
2022/12/03 07:50:19;;;;;;;37.25;18.70;;;3.00;99.90;;;;;;5115325;27;20048;-64
2022/12/03 07:52:45;;;;;;;36.42;19.67;;;2.90;99.90;;;;;;5092122;28;20031;-66
2022/12/03 07:55:12;;;;;;;33.03;17.52;;;3.00;99.90;;;;;;5111917;28;20047;-64
2022/12/03 07:57:37;;;;;;;40.00;20.10;;;3.00;99.90;;;;;;5081674;28;20393;-64
2022/12/03 08:00:04;;;;;;;40.45;21.25;;;3.00;99.90;;;;;;5091988;28;20028;-64
2022/12/03 08:02:30;;;;;;;34.95;19.17;;;3.00;99.90;;;;;;5081926;28;20024;-64
2022/12/03 08:04:56;;;;;;;39.92;20.13;;;3.00;99.90;;;;;;5112056;28;20493;-65
2022/12/03 08:07:21;;;;;;;43.75;20.90;;;3.00;99.90;;;;;;5097675;28;20032;-64
2022/12/03 08:09:47;;;;;;;41.78;20.70;;;3.00;99.90;;;;;;5096787;28;20032;-64
2022/12/03 08:12:21;;;;;;;41.83;20.60;;;2.90;99.90;;;;;;5089395;28;20046;-64
2022/12/03 08:14:46;;;;;;;40.33;19.35;;;2.90;99.90;;;;;;5107683;28;20020;-64
2022/12/03 08:17:13;;;;;;;39.70;19.25;;;2.90;99.90;;;;;;5108836;28;20080;-65
2022/12/03 08:19:43;;;;;;;44.15;21.35;;;3.00;99.90;;;;;;5083575;28;20024;-65
2022/12/03 08:22:14;;;;;;;50.47;24.40;;;2.90;99.90;;;;;;5109364;28;20496;-64
2022/12/03 08:24:39;;;;;;;;;;;2.90;99.90;;;;;;5103578;28;20020;-65
2022/12/03 08:27:16;;;;;;;51.67;24.55;;;2.80;99.90;;;;;;5098615;28;19910;-65
2022/12/03 08:29:41;;;;;;;51.28;24.63;;;2.80;99.90;;;;;;5094390;28;20027;-64
2022/12/03 08:32:10;;;;;;;55.05;24.60;;;2.80;99.90;;;;;;5103627;28;20028;-64
2022/12/03 08:34:43;;;;;;;51.30;24.40;;;2.80;99.90;;;;;;5107463;28;20413;-65
2022/12/03 08:37:16;;;;;;;51.47;23.85;;;2.90;99.90;;;;;;5109272;28;20073;-64
2022/12/03 08:39:47;;;;;;;61.15;26.35;;;2.90;99.90;;;;;;5110626;28;20028;-64
2022/12/03 08:42:41;;;;;;;57.45;27.05;;;2.90;99.90;;;;;;5110036;28;20022;-64
2022/12/03 08:45:28;;;;;;;56.97;25.35;;;2.80;99.90;;;;;;5105776;28;20085;-64
2022/12/03 08:48:25;;;;;;;57.65;26.85;;;2.90;99.90;;;;;;5092642;28;20024;-64
2022/12/03 08:51:00;;;;;;;57.03;26.30;;;2.90;99.90;;;;;;5075588;28;20068;-64
2022/12/03 08:53:49;;;;;;;54.95;24.33;;;2.90;99.90;;;;;;5091106;28;20019;-64
2022/12/03 08:56:28;;;;;;;54.60;25.77;;;2.90;99.90;;;;;;5107801;28;20084;-65
2022/12/03 08:59:17;;;;;;;57.07;25.97;;;2.90;99.90;;;;;;5109416;28;20078;-65
2022/12/03 09:01:44;;;;;;;60.45;25.25;;;2.90;99.90;;;;;;5090615;28;20414;-64
2022/12/03 09:04:19;;;;;;;57.42;27.02;;;2.90;99.90;;;;;;5109576;28;20028;-65
2022/12/03 09:06:45;;;;;;;55.25;24.63;;;2.90;99.90;;;;;;5109567;28;20016;-64
2022/12/03 09:09:10;;;;;;;45.25;22.40;;;2.80;99.90;;;;;;5089808;28;20032;-64
2022/12/03 09:11:36;;;;;;;42.38;20.30;;;2.90;99.90;;;;;;5108228;28;20028;-64
2022/12/03 09:14:03;;;;;;;43.65;21.27;;;2.90;99.90;;;;;;5110168;28;20503;-65
2022/12/03 09:16:28;;;;;;;44.67;20.13;;;2.90;99.90;;;;;;5106085;28;20380;-64
2022/12/03 09:18:54;;;;;;;45.60;21.55;;;3.00;99.90;;;;;;5109499;28;20030;-64
2022/12/03 09:21:19;;;;;;;46.65;22.30;;;3.00;99.90;;;;;;5110833;28;20038;-64
2022/12/03 09:23:45;;;;;;;54.47;24.05;;;3.00;99.90;;;;;;5083671;28;20024;-64
2022/12/03 09:26:10;;;;;;;55.47;24.60;;;3.00;99.90;;;;;;5108086;28;20012;-64
2022/12/03 09:28:35;;;;;;;47.58;22.08;;;2.90;99.90;;;;;;5109255;28;20504;-64
2022/12/03 09:31:01;;;;;;;51.40;23.08;;;3.00;99.90;;;;;;5104951;28;20030;-64
2022/12/03 09:33:27;;;;;;;49.05;23.15;;;3.00;99.90;;;;;;5108091;28;20058;-64
2022/12/03 09:35:52;;;;;;;49.30;23.38;;;3.00;99.90;;;;;;5078441;28;20024;-65
2022/12/03 09:38:18;;;;;;;48.75;22.77;;;3.00;99.90;;;;;;5090499;28;20023;-64
2022/12/03 09:40:43;;;;;;;47.05;22.55;;;2.90;99.90;;;;;;5108030;28;20024;-64
2022/12/03 09:43:10;;;;;;;47.70;21.30;;;3.00;99.90;;;;;;5109373;28;20020;-64
2022/12/03 09:45:36;;;;;;;47.45;22.42;;;3.00;99.90;;;;;;5109261;28;20023;-64
2022/12/03 09:48:02;;;;;;;46.60;20.48;;;3.00;99.90;;;;;;5110148;28;20469;-64
2022/12/03 09:50:29;;;;;;;45.70;21.15;;;3.00;99.90;;;;;;5107081;28;20084;-65
2022/12/03 09:52:58;;;;;;;44.05;19.88;;;3.00;99.90;;;;;;5101985;28;20087;-65
2022/12/03 09:55:26;;;;;;;45.15;20.00;;;3.00;99.90;;;;;;5084306;28;20020;-65
2022/12/03 09:57:53;;;;;;;45.33;20.70;;;2.90;99.90;;;;;;5110673;28;20031;-64
2022/12/03 10:00:22;;;;;;;39.83;17.13;;;2.80;99.90;;;;;;5106969;27;20016;-65
2022/12/03 10:02:50;;;;;;;46.07;19.13;;;2.90;99.90;;;;;;5103616;28;20055;-65
2022/12/03 10:05:18;;;;;;;43.33;20.35;;;2.80;99.90;;;;;;5107553;28;20103;-65
2022/12/03 10:07:44;;;;;;;44.47;19.35;;;2.80;99.90;;;;;;5084931;28;20024;-64
2022/12/03 10:10:18;;;;;;;46.10;21.42;;;2.80;99.90;;;;;;5103467;28;20028;-64
2022/12/03 10:12:44;;;;;;;42.70;19.15;;;2.90;99.90;;;;;;5093440;28;20016;-64
2022/12/03 10:15:16;;;;;;;45.67;21.27;;;2.90;99.90;;;;;;5074559;28;20020;-64
2022/12/03 10:17:42;;;;;;;45.92;21.38;;;2.90;99.90;;;;;;5080737;28;20032;-64
2022/12/03 10:20:14;;;;;;;45.83;20.50;;;2.90;99.90;;;;;;5092314;28;20035;-65
2022/12/03 10:22:40;;;;;;;46.75;20.73;;;2.90;99.90;;;;;;5092641;28;20524;-64
2022/12/03 10:25:11;;;;;;;46.70;20.73;;;2.90;99.90;;;;;;5092153;28;20043;-64
2022/12/03 10:27:38;;;;;;;40.58;19.33;;;2.90;99.90;;;;;;5093453;28;20015;-64
2022/12/03 10:30:15;;;;;;;42.63;19.58;;;2.90;99.90;;;;;;5107349;28;20151;-64
2022/12/03 10:32:50;;;;;;;45.45;21.55;;;2.90;99.90;;;;;;5109483;28;20058;-64
2022/12/03 10:35:20;;;;;;;39.78;18.05;;;3.00;99.90;;;;;;5088669;28;20024;-65
2022/12/03 10:37:59;;;;;;;45.70;20.15;;;3.00;99.90;;;;;;5086660;28;20028;-65
2022/12/03 10:40:28;;;;;;;39.83;18.95;;;3.00;99.90;;;;;;5109299;28;20485;-65
2022/12/03 10:43:18;;;;;;;47.35;20.70;;;2.90;99.90;;;;;;5104890;28;20022;-65
2022/12/03 10:46:02;;;;;;;44.03;20.63;;;3.00;99.90;;;;;;5111481;28;20019;-65
2022/12/03 10:48:28;;;;;;;42.67;19.48;;;3.00;99.90;;;;;;5109879;28;20023;-65
2022/12/03 10:50:59;;;;;;;43.80;20.00;;;3.00;99.90;;;;;;5108137;28;20108;-65
2022/12/03 10:53:31;;;;;;;42.92;19.38;;;3.00;99.90;;;;;;5109419;28;20380;-65
2022/12/03 10:55:59;;;;;;;41.47;18.17;;;3.00;99.90;;;;;;5108290;28;20028;-65
2022/12/03 10:58:30;;;;;;;39.38;18.33;;;3.00;99.90;;;;;;5110265;28;20027;-65
2022/12/03 11:00:57;;;;;;;46.63;20.48;;;3.10;99.90;;;;;;5087323;28;20074;-65
2022/12/03 11:03:28;;;;;;;42.83;20.40;;;3.10;99.90;;;;;;5085737;28;20288;-65
2022/12/03 11:05:55;;;;;;;43.17;19.30;;;3.10;99.90;;;;;;5110792;28;20019;-65
2022/12/03 11:08:23;;;;;;;42.03;20.25;;;3.10;99.90;;;;;;5091017;28;20027;-65
2022/12/03 11:11:20;;;;;;;41.15;19.67;;;3.10;99.90;;;;;;5106502;28;20019;-65
2022/12/03 11:13:51;;;;;;;40.60;19.25;;;3.20;99.90;;;;;;5061455;28;20028;-65
2022/12/03 11:16:39;;;;;;;46.15;20.77;;;3.10;99.90;;;;;;5110303;28;20024;-65
2022/12/03 11:19:37;;;;;;;40.47;19.42;;;3.20;99.90;;;;;;5093556;28;20036;-65
2022/12/03 11:22:03;;;;;;;41.25;20.40;;;3.20;99.90;;;;;;5099277;28;20023;-65
2022/12/03 11:24:37;;;;;;;41.60;20.52;;;3.10;99.90;;;;;;5098462;28;20042;-65
2022/12/03 11:27:02;;;;;;;44.42;21.13;;;3.10;99.90;;;;;;5105571;28;20028;-65
2022/12/03 11:29:51;;;;;;;52.63;23.20;;;3.10;99.90;;;;;;5095596;28;20027;-65
2022/12/03 11:32:39;;;;;;;37.75;17.42;;;3.10;99.90;;;;;;5098350;28;20012;-64
2022/12/03 11:35:35;;;;;;;43.45;19.92;;;3.10;99.90;;;;;;5077184;28;20035;-64
2022/12/03 11:38:39;;;;;;;45.65;21.25;;;3.10;99.90;;;;;;5088275;28;20416;-65
2022/12/03 11:41:14;;;;;;;47.15;21.85;;;3.10;99.90;;;;;;5104576;28;20077;-64
2022/12/03 11:43:57;;;;;;;48.83;22.73;;;3.00;99.90;;;;;;5103486;28;20494;-64
2022/12/03 11:46:26;;;;;;;48.28;22.05;;;3.00;99.90;;;;;;5091846;28;20025;-64
2022/12/03 11:48:54;;;;;;;50.45;23.33;;;3.00;99.90;;;;;;5093108;28;20497;-65
2022/12/03 11:51:23;;;;;;;52.92;23.77;;;3.00;99.90;;;;;;5103130;28;20035;-65
2022/12/03 11:53:51;;;;;;;49.55;22.70;;;3.00;99.90;;;;;;5091702;28;20474;-64
2022/12/03 11:56:24;;;;;;;53.22;22.63;;;3.00;99.90;;;;;;5074215;28;20427;-64
2022/12/03 11:59:00;;;;;;;47.17;22.25;;;3.00;99.90;;;;;;5091883;28;20032;-64
2022/12/03 12:01:39;;;;;;;43.08;20.05;;;3.00;99.90;;;;;;5091907;28;20071;-64
2022/12/03 12:04:07;;;;;;;42.85;20.42;;;3.00;99.90;;;;;;5097019;28;20537;-64
2022/12/03 12:06:41;;;;;;;44.97;21.30;;;3.00;99.90;;;;;;5091721;28;20394;-64
2022/12/03 12:09:07;;;;;;;46.47;21.60;;;3.00;99.90;;;;;;5091953;28;20027;-64
2022/12/03 12:11:39;;;;;;;50.85;21.80;;;3.00;99.90;;;;;;5091582;28;20443;-64
2022/12/03 12:14:06;;;;;;;46.88;22.65;;;3.00;99.90;;;;;;5094329;28;20020;-64
2022/12/03 12:16:54;;;;;;;44.83;20.95;;;2.90;99.90;;;;;;5098066;28;20033;-65
2022/12/03 12:19:32;;;;;;;50.65;21.52;;;3.00;99.90;;;;;;5085067;28;20119;-64
2022/12/03 12:22:23;;;;;;;45.20;21.30;;;2.90;99.90;;;;;;5095674;28;20020;-65
2022/12/03 12:24:51;;;;;;;40.22;20.83;;;2.90;99.90;;;;;;5076895;28;20016;-64
2022/12/03 12:27:36;;;;;;;43.45;19.73;;;2.90;99.90;;;;;;5095216;28;20474;-64
2022/12/03 12:30:14;;;;;;;41.60;20.00;;;2.90;99.90;;;;;;5081935;28;20063;-64
2022/12/03 12:32:51;;;;;;;38.60;17.90;;;2.90;99.90;;;;;;5079564;28;20508;-65
2022/12/03 12:35:23;;;;;;;40.85;19.95;;;2.90;99.90;;;;;;5097610;28;20485;-65
2022/12/03 12:37:56;;;;;;;40.92;19.58;;;2.90;99.90;;;;;;5116099;27;20038;-65
2022/12/03 12:40:25;;;;;;;35.63;18.65;;;3.00;99.90;;;;;;5095154;28;20039;-65
2022/12/03 12:42:56;;;;;;;43.15;18.90;;;3.00;99.90;;;;;;5106778;28;20047;-64
2022/12/03 12:45:27;;;;;;;40.40;20.55;;;3.00;99.90;;;;;;5083725;28;20030;-64
2022/12/03 12:48:06;;;;;;;39.95;19.50;;;3.00;99.90;;;;;;5082547;28;20028;-65
2022/12/03 12:50:32;;;;;;;43.80;20.88;;;3.00;99.90;;;;;;5095291;28;20027;-64
2022/12/03 12:53:25;;;;;;;44.13;20.88;;;3.00;99.90;;;;;;5098453;28;20076;-66
2022/12/03 12:55:56;;;;;;;44.65;21.63;;;3.00;99.90;;;;;;5096680;28;20063;-65
2022/12/03 12:58:22;;;;;;;42.10;19.42;;;3.00;99.90;;;;;;5109438;28;20110;-65
2022/12/03 13:00:52;;;;;;;43.20;20.50;;;2.90;99.90;;;;;;5110567;28;20115;-65
2022/12/03 13:03:19;;;;;;;41.80;20.08;;;3.00;99.90;;;;;;5106475;28;20126;-65
2022/12/03 13:05:47;;;;;;;43.50;20.08;;;2.90;99.90;;;;;;5102769;27;20028;-65